Terminal Aerodrome Forecast
Issued by NWS

Home | Current Version | Previous Version | Text Only | Print | Product List | Glossary Off
Versions: 1 2 3 4 5 6 7 8 9 10 11 12 13 14 15 16 17 18 19 20 21 22 23 24 25 26 27 28 29

611
FTUS43 KOAX 272317 AAA
TAFCDR
TAF AMD
KCDR 272317Z 2723/2818 02018G27KT 4SM -SN SCT012 OVC015
     FM280200 35012KT P6SM VCSH OVC008
     FM280500 34007KT 3SM -SHSN OVC003
     FM281200 35006KT P6SM OVC003=

USA.gov is the U.S. government's official web portal to all federal, state and local government web resources and services.